Time;durP1;ratioP1;P1;durP2;ratioP2;P2;SDS_P1;SDS_P2;PMS_P1;PMS_P2;Temp;Humidity;BMP_temperature;BMP_pressure;BME280_temperature;BME280_humidity;BME280_pressure;Samples;Min_cycle;Max_cycle;Signal;HPM_P1;HPM_P2
2023/08/06 00:01:11;;;;;;;10.20;9.47;;;;;;;19.45;100.00;91793.22;5009011;28;20230;-74
2023/08/06 00:03:37;;;;;;;11.25;10.35;;;;;;;19.62;100.00;91795.41;5001278;28;20188;-73
2023/08/06 00:06:02;;;;;;;11.02;9.85;;;;;;;19.48;100.00;91797.81;5005520;28;20230;-74
2023/08/06 00:08:27;;;;;;;11.53;10.43;;;;;;;19.38;100.00;91802.91;5009807;28;20313;-74
2023/08/06 00:10:53;;;;;;;11.80;10.90;;;;;;;19.31;100.00;91803.53;5002412;28;20226;-74
2023/08/06 00:13:18;;;;;;;12.97;11.73;;;;;;;19.66;100.00;91808.69;4990212;28;20195;-73
2023/08/06 00:15:44;;;;;;;10.50;9.48;;;;;;;19.49;100.00;91793.25;4995616;28;20226;-74
2023/08/06 00:18:09;;;;;;;12.37;11.23;;;;;;;19.57;100.00;91781.66;5009618;28;20198;-74
2023/08/06 00:20:34;;;;;;;11.50;10.50;;;;;;;19.43;100.00;91795.44;5008856;28;20236;-73
2023/08/06 00:23:00;;;;;;;15.43;10.43;;;;;;;19.46;100.00;91788.66;5009434;28;20201;-74
2023/08/06 00:25:25;;;;;;;11.95;10.98;;;;;;;19.56;100.00;91788.88;5008765;28;20222;-74
2023/08/06 00:27:50;;;;;;;10.63;9.93;;;;;;;19.51;100.00;91783.84;5009399;28;20842;-73
2023/08/06 00:30:16;;;;;;;10.40;9.57;;;;;;;19.61;100.00;91774.56;5008738;28;20212;-73
2023/08/06 00:32:41;;;;;;;11.03;9.97;;;;;;;19.44;100.00;91781.06;5009337;28;20845;-73
2023/08/06 00:35:07;;;;;;;10.80;10.00;;;;;;;19.71;100.00;91780.03;5013628;28;20191;-73
2023/08/06 00:37:32;;;;;;;11.07;9.93;;;;;;;19.81;100.00;91776.81;5001610;28;20198;-73
2023/08/06 00:39:58;;;;;;;10.05;9.35;;;;;;;19.64;100.00;91795.81;5009038;28;20189;-73
2023/08/06 00:42:23;;;;;;;9.68;8.98;;;;;;;19.65;100.00;91781.44;4989137;28;20237;-73
2023/08/06 00:44:49;;;;;;;10.82;9.93;;;;;;;19.32;100.00;91772.53;4990125;28;20194;-73
2023/08/06 00:47:15;;;;;;;10.02;9.20;;;;;;;19.37;100.00;91762.44;4989041;28;20230;-73
2023/08/06 00:49:40;;;;;;;10.87;9.70;;;;;;;19.33;100.00;91766.88;4990080;28;20303;-73
2023/08/06 00:52:07;;;;;;;11.13;10.27;;;;;;;19.34;100.00;91765.00;4987538;28;20239;-73
2023/08/06 00:54:33;;;;;;;10.27;9.47;;;;;;;19.19;100.00;91759.44;4990448;28;20198;-73
2023/08/06 00:57:00;;;;;;;11.37;10.40;;;;;;;19.34;100.00;91755.19;5005600;28;20293;-73
2023/08/06 00:59:26;;;;;;;10.53;9.83;;;;;;;19.16;100.00;91748.78;4994595;28;20187;-74
2023/08/06 01:01:51;;;;;;;9.07;8.50;;;;;;;19.24;100.00;91749.69;5008835;28;20257;-74
2023/08/06 01:04:17;;;;;;;10.07;9.47;;;;;;;19.10;100.00;91740.38;5004509;28;20195;-73
2023/08/06 01:06:42;;;;;;;9.17;8.57;;;;;;;19.17;100.00;91729.16;4999516;28;20229;-74
2023/08/06 01:09:19;;;;;;;10.60;9.90;;;;;;;19.13;100.00;91715.09;4979347;28;20196;-73
2023/08/06 01:11:59;;;;;;;10.30;9.60;;;;;;;19.16;100.00;91736.31;4988547;28;20261;-73
2023/08/06 01:14:43;;;;;;;10.20;9.50;;;;;;;19.00;100.00;91719.78;4974183;28;20219;-73
2023/08/06 01:17:09;;;;;;;9.33;8.73;;;;;;;19.13;100.00;91738.91;5010447;28;20229;-73
2023/08/06 01:19:35;;;;;;;10.95;10.25;;;;;;;19.08;100.00;91737.31;5013451;28;20200;-73
2023/08/06 01:22:00;;;;;;;10.18;9.50;;;;;;;19.42;100.00;91727.72;5000141;28;20238;-74
2023/08/06 01:24:26;;;;;;;10.03;9.37;;;;;;;19.20;100.00;91715.22;5012049;28;20183;-73
2023/08/06 01:27:05;;;;;;;10.37;9.67;;;;;;;19.30;100.00;91712.00;5013049;28;20226;-74
2023/08/06 01:29:36;;;;;;;10.15;9.48;;;;;;;19.14;100.00;91711.34;5013456;28;20183;-73
2023/08/06 01:32:03;;;;;;;10.45;9.63;;;;;;;19.15;100.00;91710.22;5012533;28;20231;-74
2023/08/06 01:34:32;;;;;;;10.02;9.43;;;;;;;19.12;100.00;91706.41;5007513;28;20198;-73
2023/08/06 01:37:00;;;;;;;10.30;9.50;;;;;;;19.17;100.00;91698.16;5012737;28;20227;-74
2023/08/06 01:39:25;;;;;;;10.50;9.63;;;;;;;19.08;100.00;91700.28;5010887;28;20263;-73
2023/08/06 01:41:50;;;;;;;10.33;9.47;;;;;;;19.02;100.00;91708.84;4996715;28;20239;-73
2023/08/06 01:44:16;;;;;;;10.10;9.47;;;;;;;19.10;100.00;91684.81;5013357;28;20250;-74
2023/08/06 01:46:41;;;;;;;10.90;10.10;;;;;;;18.87;100.00;91699.13;4987002;28;20231;-74
2023/08/06 01:49:07;;;;;;;9.57;8.75;;;;;;;19.08;100.00;91691.59;4993639;28;20190;-74
2023/08/06 01:51:32;;;;;;;9.63;9.00;;;;;;;19.18;100.00;91693.63;5005187;28;20274;-73
2023/08/06 01:53:58;;;;;;;9.68;9.07;;;;;;;18.85;100.00;91704.00;5012841;28;20941;-73
2023/08/06 01:56:23;;;;;;;9.63;9.00;;;;;;;18.97;100.00;91709.16;5012338;28;20227;-73
2023/08/06 01:58:48;;;;;;;10.10;9.50;;;;;;;18.92;100.00;91718.16;5012750;28;20247;-73
2023/08/06 02:01:14;;;;;;;8.87;8.17;;;;;;;18.93;100.00;91700.38;5012244;28;20231;-74
2023/08/06 02:03:39;;;;;;;11.20;10.40;;;;;;;18.92;100.00;91683.75;5011117;28;20218;-74
2023/08/06 02:06:05;;;;;;;11.03;10.40;;;;;;;19.00;100.00;91700.50;5006274;28;20241;-74
2023/08/06 02:08:30;;;;;;;11.03;10.23;;;;;;;18.88;100.00;91695.38;5011677;28;20214;-73
2023/08/06 02:10:55;;;;;;;10.23;9.43;;;;;;;18.96;100.00;91684.56;5011750;28;20310;-74
2023/08/06 02:13:21;;;;;;;13.13;11.93;;;;;;;18.70;100.00;91699.56;5012756;28;20259;-74
2023/08/06 02:15:49;;;;;;;12.43;11.23;;;;;;;18.73;100.00;91698.88;5012118;28;20236;-74
2023/08/06 02:18:15;;;;;;;11.93;11.03;;;;;;;18.72;100.00;91708.69;5012494;28;20233;-73
2023/08/06 02:20:41;;;;;;;12.63;11.43;;;;;;;18.73;100.00;91712.88;5011635;28;20242;-73
2023/08/06 02:23:07;;;;;;;12.87;11.63;;;;;;;18.85;100.00;91722.50;5012327;28;20194;-73
2023/08/06 02:25:32;;;;;;;12.80;11.70;;;;;;;18.69;100.00;91706.75;5011706;28;20262;-74
2023/08/06 02:27:58;;;;;;;11.53;10.63;;;;;;;18.79;100.00;91708.06;5012195;28;20174;-75
2023/08/06 02:30:23;;;;;;;10.47;9.77;;;;;;;18.72;100.00;91702.66;5011772;28;20225;-73
2023/08/06 02:32:49;;;;;;;11.57;10.67;;;;;;;18.38;100.00;91695.56;5011664;28;20302;-73
2023/08/06 02:35:14;;;;;;;11.73;10.70;;;;;;;18.64;100.00;91703.63;5011737;28;20201;-73
2023/08/06 02:37:39;;;;;;;11.63;10.27;;;;;;;18.66;100.00;91725.94;5011784;28;20181;-73
2023/08/06 02:40:05;;;;;;;10.80;9.97;;;;;;;18.58;100.00;91726.16;5011040;28;20192;-73
2023/08/06 02:42:31;;;;;;;11.40;10.60;;;;;;;18.69;100.00;91725.25;4981389;28;20229;-73
2023/08/06 02:44:56;;;;;;;11.13;10.23;;;;;;;18.48;100.00;91716.91;4992113;28;20253;-73
2023/08/06 02:47:21;;;;;;;10.00;9.40;;;;;;;18.90;100.00;91724.88;4992102;28;20223;-74
2023/08/06 02:49:47;;;;;;;10.87;10.07;;;;;;;18.75;100.00;91696.66;5023603;28;20194;-73
2023/08/06 02:52:12;;;;;;;10.87;10.17;;;;;;;18.71;100.00;91706.38;4991615;28;20229;-73
2023/08/06 02:54:38;;;;;;;11.00;10.30;;;;;;;18.75;100.00;91707.22;4992372;28;20368;-73
2023/08/06 02:57:04;;;;;;;10.43;9.73;;;;;;;18.83;100.00;91719.47;4991695;28;20219;-72
2023/08/06 02:59:30;;;;;;;11.73;10.70;;;;;;;18.65;100.00;91702.50;4991982;28;20205;-73
2023/08/06 03:01:55;;;;;;;11.23;10.53;;;;;;;18.68;100.00;91691.22;4991432;28;20233;-73
2023/08/06 03:04:21;;;;;;;10.63;9.83;;;;;;;18.88;100.00;91704.06;4992288;28;20219;-73
2023/08/06 03:06:46;;;;;;;10.77;10.00;;;;;;;18.85;100.00;91686.25;4991029;28;20288;-73
2023/08/06 03:09:11;;;;;;;11.03;10.33;;;;;;;18.92;100.00;91691.69;4991999;28;20194;-73
2023/08/06 03:11:37;;;;;;;10.77;10.10;;;;;;;18.58;100.00;91702.38;4991698;28;20237;-73
2023/08/06 03:14:02;;;;;;;10.27;9.50;;;;;;;18.49;100.00;91689.34;4992438;28;20209;-73
2023/08/06 03:16:27;;;;;;;10.67;9.97;;;;;;;18.33;100.00;91662.22;4998101;28;20222;-73
2023/08/06 03:18:53;;;;;;;10.00;9.50;;;;;;;18.90;100.00;91648.94;4984476;28;20253;-73
2023/08/06 03:21:18;;;;;;;9.70;9.10;;;;;;;18.91;100.00;91650.47;5001448;28;20229;-73
2023/08/06 03:23:47;;;;;;;11.30;10.33;;;;;;;19.14;100.00;91684.88;5011056;28;20212;-72
2023/08/06 03:26:13;;;;;;;10.40;9.60;;;;;;;19.11;100.00;91698.81;5003328;28;20225;-73
2023/08/06 03:28:38;;;;;;;10.57;9.63;;;;;;;18.97;100.00;91683.44;4992046;28;20187;-73
2023/08/06 03:31:04;;;;;;;9.80;9.20;;;;;;;19.08;100.00;91700.28;5009257;28;20229;-74
2023/08/06 03:33:30;;;;;;;10.53;9.60;;;;;;;19.22;100.00;91704.28;5000960;28;20227;-72
2023/08/06 03:35:56;;;;;;;10.80;10.10;;;;;;;19.14;100.00;91692.81;5008357;28;20244;-73
2023/08/06 03:38:22;;;;;;;10.47;9.57;;;;;;;19.23;100.00;91685.41;5011011;28;20186;-73
2023/08/06 03:40:48;;;;;;;9.90;9.03;;;;;;;19.28;100.00;91708.97;5010135;28;20230;-73
2023/08/06 03:43:14;;;;;;;9.75;9.10;;;;;;;19.24;100.00;91708.09;5011253;28;20206;-72
2023/08/06 03:45:40;;;;;;;24.90;13.53;;;;;;;19.29;100.00;91709.72;5017454;28;20222;-73
2023/08/06 03:48:05;;;;;;;9.60;8.90;;;;;;;19.39;100.00;91712.56;5000269;28;20197;-73
2023/08/06 03:50:31;;;;;;;9.37;8.67;;;;;;;19.40;100.00;91724.66;5008889;28;21783;-74
2023/08/06 03:52:56;;;;;;;9.55;8.95;;;;;;;19.37;100.00;91714.78;5009017;28;20226;-73
2023/08/06 03:55:22;;;;;;;10.32;9.73;;;;;;;19.34;100.00;91720.78;5025649;28;20263;-72
2023/08/06 03:57:47;;;;;;;10.83;9.97;;;;;;;19.43;100.00;91731.91;5010712;28;20188;-73
2023/08/06 04:00:12;;;;;;;10.10;9.50;;;;;;;19.43;100.00;91726.59;5000483;28;20223;-73
2023/08/06 04:02:38;;;;;;;10.48;9.73;;;;;;;19.52;100.00;91745.66;5002766;28;20224;-73
2023/08/06 04:05:03;;;;;;;8.57;7.95;;;;;;;19.41;100.00;91734.13;5005546;28;20181;-77
2023/08/06 04:07:29;;;;;;;9.67;9.07;;;;;;;19.45;100.00;91740.25;5000202;28;20186;-73
2023/08/06 04:09:58;;;;;;;10.02;9.43;;;;;;;19.45;100.00;91734.97;5008801;28;20181;-78
2023/08/06 04:12:23;;;;;;;9.05;8.35;;;;;;;19.46;100.00;91730.41;4999657;28;20238;-76
2023/08/06 04:14:50;;;;;;;9.90;9.20;;;;;;;19.36;100.00;91715.91;5009065;28;20209;-75
2023/08/06 04:17:16;;;;;;;9.45;8.85;;;;;;;19.32;100.00;91723.00;5010113;28;20234;-75
2023/08/06 04:19:41;;;;;;;10.10;9.50;;;;;;;18.80;100.00;91715.63;4997741;28;20641;-75
2023/08/06 04:22:07;;;;;;;10.38;9.68;;;;;;;18.90;100.00;91727.53;4999296;28;20238;-75
2023/08/06 04:24:32;;;;;;;10.53;9.90;;;;;;;18.88;100.00;91729.75;5008454;28;20193;-76
2023/08/06 04:26:57;;;;;;;11.43;10.47;;;;;;;18.81;100.00;91732.28;4999386;28;20230;-75
2023/08/06 04:29:23;;;;;;;10.70;9.80;;;;;;;19.22;100.00;91734.16;5008166;28;20209;-76
2023/08/06 04:31:48;;;;;;;11.60;10.60;;;;;;;19.14;100.00;91708.69;5009202;28;20217;-76
2023/08/06 04:34:14;;;;;;;12.27;11.13;;;;;;;19.01;100.00;91718.69;5009989;28;20222;-75
2023/08/06 04:36:39;;;;;;;11.10;10.23;;;;;;;19.15;100.00;91710.22;5009618;28;20245;-75
2023/08/06 04:39:04;;;;;;;10.40;9.70;;;;;;;19.30;100.00;91698.78;4997526;28;20191;-76
2023/08/06 04:41:30;;;;;;;11.07;10.30;;;;;;;19.42;100.00;91701.25;4992683;28;20252;-75
2023/08/06 04:43:56;;;;;;;10.97;10.17;;;;;;;19.45;100.00;91691.84;5007471;28;20202;-74
2023/08/06 04:46:22;;;;;;;10.63;9.83;;;;;;;19.23;100.00;91679.34;5001355;28;20297;-75
2023/08/06 04:48:47;;;;;;;11.40;10.60;;;;;;;19.25;100.00;91679.75;5006656;28;20194;-75
2023/08/06 04:51:13;;;;;;;10.97;10.07;;;;;;;19.22;100.00;91678.59;5009705;28;20229;-75
2023/08/06 04:53:38;;;;;;;10.80;10.10;;;;;;;19.46;100.00;91661.59;5009501;28;20263;-75
2023/08/06 04:56:04;;;;;;;12.50;11.50;;;;;;;19.48;100.00;91654.06;5008609;28;20329;-75
2023/08/06 04:58:29;;;;;;;11.47;10.70;;;;;;;19.49;100.00;91656.34;5005705;28;20200;-75
2023/08/06 05:00:54;;;;;;;11.33;10.63;;;;;;;19.75;100.00;91658.25;5009608;28;20286;-74
2023/08/06 05:03:20;;;;;;;11.53;10.73;;;;;;;20.23;100.00;91662.72;5009611;28;20181;-75
2023/08/06 05:05:46;;;;;;;12.60;11.53;;;;;;;20.71;100.00;91669.72;5009080;28;20234;-75
2023/08/06 05:08:16;;;;;;;10.32;9.63;;;;;;;21.20;100.00;91661.53;5009433;28;20220;-77
2023/08/06 05:10:43;;;;;;;11.15;10.35;;;;;;;21.67;100.00;91672.13;5008811;28;20893;-75
2023/08/06 05:13:09;;;;;;;11.13;10.07;;;;;;;21.97;100.00;91662.91;5006158;28;20226;-75
2023/08/06 05:15:34;;;;;;;11.30;10.50;;;;;;;21.41;100.00;91667.78;5009308;28;20234;-73
2023/08/06 05:17:59;;;;;;;12.60;11.52;;;;;;;21.49;100.00;91673.91;5005877;28;20196;-75
2023/08/06 05:20:25;;;;;;;11.80;10.77;;;;;;;21.26;100.00;91660.06;5001317;28;20316;-75
2023/08/06 05:22:51;;;;;;;10.25;9.52;;;;;;;20.76;100.00;91684.53;4994969;28;20718;-75
2023/08/06 05:25:16;;;;;;;11.75;10.73;;;;;;;20.59;100.00;91664.66;4991503;28;20297;-75
2023/08/06 05:27:42;;;;;;;11.48;10.57;;;;;;;20.53;100.00;91661.56;5022560;28;20177;-75
2023/08/06 05:30:08;;;;;;;14.70;13.43;;;;;;;20.13;100.00;91658.81;5008761;28;20196;-75
2023/08/06 05:32:34;;;;;;;15.52;14.25;;;;;;;20.16;100.00;91657.31;5008502;28;20212;-75
2023/08/06 05:34:59;;;;;;;16.60;15.20;;;;;;;20.51;100.00;91655.84;5024088;28;20210;-75
2023/08/06 05:37:24;;;;;;;15.50;14.27;;;;;;;20.51;100.00;91663.81;4994902;28;20222;-75
2023/08/06 05:39:50;;;;;;;15.43;14.02;;;;;;;20.45;100.00;91664.50;5008585;28;20214;-76
2023/08/06 05:42:16;;;;;;;15.63;14.35;;;;;;;20.39;100.00;91661.41;4981065;28;20262;-75
2023/08/06 05:44:41;;;;;;;15.13;13.82;;;;;;;20.22;100.00;91667.25;5007305;28;20220;-75
2023/08/06 05:47:06;;;;;;;15.90;14.52;;;;;;;20.19;100.00;91644.13;4992909;28;20230;-76
2023/08/06 05:49:32;;;;;;;16.48;15.07;;;;;;;20.38;100.00;91654.56;4991662;28;20210;-76
2023/08/06 05:51:57;;;;;;;17.00;15.57;;;;;;;20.35;100.00;91662.47;4984618;28;20279;-72
2023/08/06 05:54:23;;;;;;;15.77;14.43;;;;;;;20.60;100.00;91669.63;4983363;28;20200;-72
2023/08/06 05:56:48;;;;;;;16.40;15.00;;;;;;;20.82;100.00;91661.88;4990263;28;20234;-69
2023/08/06 05:59:13;;;;;;;19.08;17.38;;;;;;;21.07;100.00;91670.88;4985733;28;20177;-70
2023/08/06 06:01:39;;;;;;;21.92;19.70;;;;;;;21.62;100.00;91669.84;4988316;28;20254;-70
2023/08/06 06:04:04;;;;;;;19.25;17.13;;;;;;;21.85;100.00;91679.13;4981326;28;20197;-70
2023/08/06 06:06:29;;;;;;;22.02;19.23;;;;;;;21.62;100.00;91693.75;4991104;28;20784;-68
2023/08/06 06:08:55;;;;;;;22.55;20.42;;;;;;;21.34;100.00;91683.63;4992369;28;20185;-73
2023/08/06 06:11:22;;;;;;;23.20;20.90;;;;;;;21.95;100.00;91696.28;5007716;28;20222;-75
2023/08/06 06:13:50;;;;;;;22.65;20.25;;;;;;;22.39;100.00;91696.91;4984583;28;20212;-74
2023/08/06 06:16:16;;;;;;;20.48;18.42;;;;;;;22.44;100.00;91699.25;4995673;28;20245;-72
2023/08/06 06:18:41;;;;;;;19.30;17.55;;;;;;;23.24;97.19;91706.75;5012310;28;20187;-71
2023/08/06 06:21:07;;;;;;;18.58;17.00;;;;;;;24.76;86.97;91720.84;5004080;28;20230;-72
2023/08/06 06:23:32;;;;;;;17.90;16.38;;;;;;;25.19;84.08;91714.94;5009486;28;20194;-73
2023/08/06 06:25:57;;;;;;;17.73;16.25;;;;;;;25.68;77.30;91727.28;5000912;28;20230;-72
2023/08/06 06:28:23;;;;;;;16.83;15.38;;;;;;;22.49;91.49;91712.16;4980678;28;20198;-74
2023/08/06 06:30:48;;;;;;;18.45;16.70;;;;;;;22.62;93.28;91721.38;4985083;28;20297;-73
2023/08/06 06:33:14;;;;;;;18.63;16.73;;;;;;;22.02;92.71;91728.22;5009218;28;20225;-73
2023/08/06 06:35:39;;;;;;;17.85;16.20;;;;;;;21.40;97.44;91732.63;5005289;28;20990;-75
2023/08/06 06:38:04;;;;;;;17.42;15.63;;;;;;;21.56;94.85;91730.50;4985139;28;20782;-74
2023/08/06 06:40:30;;;;;;;15.93;14.45;;;;;;;21.86;95.09;91733.03;4987472;28;20234;-75
2023/08/06 06:42:55;;;;;;;16.98;15.30;;;;;;;21.54;100.00;91732.75;4991393;28;20302;-76
2023/08/06 06:45:21;;;;;;;16.30;14.77;;;;;;;22.44;94.84;91736.47;4988546;28;20258;-74
2023/08/06 06:47:46;;;;;;;16.65;15.15;;;;;;;22.29;92.23;91732.19;4986968;28;20280;-75
2023/08/06 06:50:11;;;;;;;16.08;14.60;;;;;;;22.37;92.55;91733.75;4991076;28;20197;-74
2023/08/06 06:52:37;;;;;;;18.02;16.30;;;;;;;22.06;95.72;91734.31;4991524;28;20214;-75
2023/08/06 06:55:03;;;;;;;17.98;16.13;;;;;;;22.11;90.37;91736.66;4985776;28;20198;-81
2023/08/06 06:57:28;;;;;;;18.77;17.02;;;;;;;21.30;98.87;91751.09;4991161;28;20193;-80
2023/08/06 06:59:53;;;;;;;17.15;15.48;;;;;;;20.58;98.21;91755.94;4991056;28;20189;-80
2023/08/06 07:02:19;;;;;;;18.40;16.70;;;;;;;20.64;100.00;91767.78;5001493;28;20262;-75
2023/08/06 07:04:44;;;;;;;17.55;15.95;;;;;;;20.53;98.67;91762.34;5010324;28;20210;-77
2023/08/06 07:07:10;;;;;;;17.30;15.60;;;;;;;21.17;97.91;91769.19;4989316;28;20281;-75
2023/08/06 07:09:35;;;;;;;16.52;15.02;;;;;;;21.87;100.00;91769.88;4982456;28;20194;-75
2023/08/06 07:12:01;;;;;;;15.00;13.50;;;;;;;21.82;97.95;91774.78;4990869;28;20222;-75
2023/08/06 07:14:28;;;;;;;15.27;13.88;;;;;;;21.69;94.88;91784.13;4991064;28;20181;-76
2023/08/06 07:16:53;;;;;;;13.02;12.02;;;;;;;22.45;85.89;91782.44;4989497;28;20237;-76
2023/08/06 07:19:19;;;;;;;13.80;12.70;;;;;;;22.73;86.84;91778.09;4990458;28;20193;-76
2023/08/06 07:21:44;;;;;;;13.05;11.80;;;;;;;22.43;82.46;91774.84;4990242;28;20293;-76
2023/08/06 07:24:10;;;;;;;13.55;12.45;;;;;;;22.61;83.48;91775.75;4989885;28;20195;-76
2023/08/06 07:26:35;;;;;;;11.43;10.63;;;;;;;22.15;82.15;91777.31;4988888;28;20263;-74
2023/08/06 07:29:00;;;;;;;9.73;9.10;;;;;;;23.11;79.61;91777.50;4994379;28;20187;-75
2023/08/06 07:31:26;;;;;;;10.38;9.68;;;;;;;22.62;75.28;91787.91;4988688;28;20242;-81
2023/08/06 07:33:51;;;;;;;10.18;9.48;;;;;;;22.22;75.39;91790.66;4996490;28;20257;-70
2023/08/06 07:36:17;;;;;;;9.10;8.60;;;;;;;22.15;74.23;91785.28;4989646;28;20261;-70
2023/08/06 07:38:42;;;;;;;8.40;7.95;;;;;;;22.61;70.14;91807.69;4989349;28;20193;-71
2023/08/06 07:41:09;;;;;;;10.52;9.60;;;;;;;22.32;70.41;91799.84;4989854;28;20313;-71
2023/08/06 07:43:35;;;;;;;8.77;8.27;;;;;;;22.49;74.91;91793.88;4990059;28;20210;-72
2023/08/06 07:46:01;;;;;;;9.15;8.55;;;;;;;22.15;70.42;91794.03;4990060;28;20325;-72
2023/08/06 07:48:28;;;;;;;9.32;8.82;;;;;;;22.76;72.79;91798.63;4980690;28;20194;-71
2023/08/06 07:50:56;;;;;;;10.50;9.80;;;;;;;22.80;71.41;91801.31;4990343;28;20337;-68
2023/08/06 07:53:23;;;;;;;9.20;8.70;;;;;;;22.57;70.06;91788.25;5008508;28;20193;-72
2023/08/06 07:55:52;;;;;;;9.80;9.10;;;;;;;22.72;71.62;91786.44;5001461;28;20273;-72
2023/08/06 07:58:19;;;;;;;9.85;9.23;;;;;;;22.92;71.48;91791.09;4989036;28;20194;-72
2023/08/06 08:00:45;;;;;;;8.63;8.15;;;;;;;22.80;66.25;91780.75;4989265;28;20238;-71
2023/08/06 08:03:14;;;;;;;9.50;9.00;;;;;;;22.66;72.95;91788.72;4986341;28;20182;-72
2023/08/06 08:05:43;;;;;;;8.55;8.05;;;;;;;22.61;67.40;91791.72;4983621;28;20227;-72
2023/08/06 08:08:09;;;;;;;8.35;7.72;;;;;;;22.50;65.33;91788.19;4989089;28;20199;-71
2023/08/06 08:10:35;;;;;;;9.73;9.13;;;;;;;22.83;69.31;91788.03;4984246;28;20233;-78
2023/08/06 08:13:01;;;;;;;9.00;8.40;;;;;;;22.79;67.88;91791.78;4990519;28;20314;-76
2023/08/06 08:15:28;;;;;;;9.15;8.55;;;;;;;22.31;63.68;91798.31;4987004;28;20265;-74
2023/08/06 08:17:54;;;;;;;9.25;8.65;;;;;;;22.41;69.25;91793.09;4988475;28;20186;-73
2023/08/06 08:20:21;;;;;;;9.35;8.85;;;;;;;22.59;68.19;91788.66;4984313;28;20271;-72
2023/08/06 08:22:46;;;;;;;10.10;9.40;;;;;;;22.82;68.17;91781.16;4989598;28;20233;-74
2023/08/06 08:25:12;;;;;;;10.13;9.52;;;;;;;22.65;69.22;91776.50;4989416;28;20196;-74
2023/08/06 08:27:37;;;;;;;11.88;10.95;;;;;;;22.54;67.58;91781.00;4989314;28;20182;-73
2023/08/06 08:30:03;;;;;;;10.48;9.77;;;;;;;22.58;67.20;91781.81;4989231;28;20192;-73
2023/08/06 08:32:28;;;;;;;11.98;11.07;;;;;;;22.60;67.83;91795.50;4989061;28;20237;-78
2023/08/06 08:34:53;;;;;;;12.15;11.25;;;;;;;22.72;65.67;91797.84;4987472;28;20190;-75
2023/08/06 08:37:19;;;;;;;12.13;11.35;;;;;;;22.77;67.12;91783.44;5007486;28;20228;-76
2023/08/06 08:39:44;;;;;;;11.15;10.15;;;;;;;22.95;65.82;91790.38;5009026;28;20215;-73
2023/08/06 08:42:10;;;;;;;12.23;11.27;;;;;;;22.96;68.67;91791.88;5003781;28;20249;-76
2023/08/06 08:44:39;;;;;;;11.45;10.60;;;;;;;23.05;64.75;91797.63;5005605;28;20185;-74
2023/08/06 08:47:09;;;;;;;10.98;10.18;;;;;;;23.19;65.55;91789.69;5008284;28;20248;-74
2023/08/06 08:49:35;;;;;;;11.82;10.75;;;;;;;23.40;64.38;91797.78;5005743;28;20186;-71
2023/08/06 08:52:02;;;;;;;11.40;10.60;;;;;;;23.38;69.17;91789.41;5005629;28;20254;-74
2023/08/06 08:54:30;;;;;;;10.15;9.48;;;;;;;23.58;64.37;91773.84;5002158;28;20195;-74
2023/08/06 08:56:56;;;;;;;10.73;9.95;;;;;;;23.37;61.40;91785.22;5007515;28;20248;-74
2023/08/06 08:59:22;;;;;;;9.45;8.90;;;;;;;23.30;60.40;91769.19;5008761;28;20986;-76
2023/08/06 09:01:51;;;;;;;9.43;8.73;;;;;;;23.37;62.71;91771.91;5008252;28;20323;-75
2023/08/06 09:04:21;;;;;;;9.55;8.85;;;;;;;23.34;59.94;91782.53;5006961;28;20193;-74
2023/08/06 09:06:50;;;;;;;10.68;8.60;;;;;;;23.03;56.48;91770.63;5002293;28;20237;-75
2023/08/06 09:09:26;;;;;;;8.77;8.07;;;;;;;23.42;56.78;91787.53;5007840;28;20198;-74
2023/08/06 09:11:52;;;;;;;11.05;10.25;;;;;;;23.60;59.80;91782.97;5004246;28;22678;-75
2023/08/06 09:14:18;;;;;;;10.52;9.65;;;;;;;23.60;61.19;91779.53;5005385;28;20201;-75
2023/08/06 09:16:44;;;;;;;9.73;9.13;;;;;;;23.67;58.58;91780.31;5007428;28;20217;-74
2023/08/06 09:19:12;;;;;;;10.90;10.18;;;;;;;23.36;60.52;91772.28;5010228;28;20191;-76
2023/08/06 09:21:41;;;;;;;10.45;9.75;;;;;;;23.85;60.69;91767.00;4998784;28;20243;-76
2023/08/06 09:24:11;;;;;;;10.57;9.95;;;;;;;23.92;60.58;91782.25;5012332;28;20193;-75
2023/08/06 09:26:38;;;;;;;10.80;10.13;;;;;;;24.00;58.37;91783.81;5020475;28;20263;-78
2023/08/06 09:29:07;;;;;;;10.43;9.70;;;;;;;23.82;58.24;91777.66;5004298;28;20225;-78
2023/08/06 09:31:43;;;;;;;9.52;9.02;;;;;;;23.47;59.82;91767.75;5010044;28;20193;-73
2023/08/06 09:34:26;;;;;;;10.90;10.20;;;;;;;23.58;58.64;91773.84;5008585;28;20253;-73
2023/08/06 09:36:56;;;;;;;11.75;10.73;;;;;;;23.58;58.07;91765.84;5004897;28;20229;-72
2023/08/06 09:39:29;;;;;;;9.07;8.57;;;;;;;23.85;59.80;91761.69;5007902;28;20199;-73
2023/08/06 09:41:59;;;;;;;9.32;8.63;;;;;;;23.95;58.18;91752.16;5010919;28;20893;-73
2023/08/06 09:44:26;;;;;;;10.30;9.70;;;;;;;23.30;61.82;91758.53;5000567;28;20261;-73
2023/08/06 09:46:52;;;;;;;9.40;8.73;;;;;;;23.40;61.85;91752.50;5007389;28;20546;-72
2023/08/06 09:49:19;;;;;;;10.07;9.48;;;;;;;23.83;62.13;91752.56;5005589;28;20190;-72
2023/08/06 09:51:46;;;;;;;10.63;9.63;;;;;;;23.66;61.38;91770.03;5010064;28;20239;-71
2023/08/06 09:54:15;;;;;;;10.73;9.82;;;;;;;23.97;60.50;91764.00;5008986;28;20178;-71
2023/08/06 09:56:42;;;;;;;10.85;10.02;;;;;;;24.07;58.18;91759.81;5010814;28;20229;-71
2023/08/06 09:59:08;;;;;;;9.90;9.20;;;;;;;24.11;58.81;91763.25;5010956;28;20195;-74
2023/08/06 10:01:35;;;;;;;10.00;9.32;;;;;;;24.39;57.54;91768.56;5005757;28;20225;-73
2023/08/06 10:04:02;;;;;;;11.27;10.48;;;;;;;24.33;59.22;91770.09;5004686;28;20179;-73
2023/08/06 10:06:29;;;;;;;9.80;9.05;;;;;;;24.19;58.52;91772.78;5001734;28;20203;-73
2023/08/06 10:08:54;;;;;;;10.73;9.93;;;;;;;24.65;59.58;91771.56;5011696;28;20646;-77
2023/08/06 10:11:23;;;;;;;10.40;9.55;;;;;;;24.97;58.03;91780.28;5010979;28;20183;-73
2023/08/06 10:13:53;;;;;;;9.63;9.02;;;;;;;24.97;57.29;91766.91;5005835;28;20198;-74
2023/08/06 10:16:19;;;;;;;10.55;9.77;;;;;;;25.46;55.04;91790.03;5006815;28;20190;-71
2023/08/06 10:18:46;;;;;;;9.82;9.13;;;;;;;25.05;57.41;91783.69;5005244;28;20188;-75
2023/08/06 10:21:13;;;;;;;10.48;9.77;;;;;;;24.61;55.51;91791.38;5007637;28;20245;-74
2023/08/06 10:23:40;;;;;;;9.40;8.80;;;;;;;24.07;57.94;91779.25;4996234;28;20227;-77
2023/08/06 10:26:06;;;;;;;9.27;8.48;;;;;;;24.37;58.67;91787.63;4991314;28;20210;-74
2023/08/06 10:28:40;;;;;;;9.10;8.57;;;;;;;24.34;57.75;91779.63;5001900;28;20235;-73
2023/08/06 10:31:06;;;;;;;9.23;8.63;;;;;;;24.64;58.64;91782.63;5000418;28;20253;-75
2023/08/06 10:33:46;;;;;;;9.43;8.75;;;;;;;24.08;58.01;91793.34;5010909;28;20231;-74
2023/08/06 10:36:12;;;;;;;9.93;9.23;;;;;;;24.23;58.73;91794.88;5006754;28;20206;-71
2023/08/06 10:38:49;;;;;;;10.00;9.25;;;;;;;24.51;58.83;91805.53;5007214;28;20223;-72
2023/08/06 10:41:28;;;;;;;9.88;9.18;;;;;;;24.29;59.09;91804.00;4991642;28;20613;-71
2023/08/06 10:44:06;;;;;;;9.63;9.02;;;;;;;24.41;59.62;91791.03;5011029;28;20211;-70
2023/08/06 10:46:31;;;;;;;10.05;9.35;;;;;;;24.44;60.62;91797.50;5008636;28;20196;-70
2023/08/06 10:48:57;;;;;;;9.90;9.20;;;;;;;23.94;58.07;91801.31;4990641;28;20964;-71
2023/08/06 10:51:22;;;;;;;10.55;9.75;;;;;;;23.73;60.84;91802.81;4983993;28;20202;-71
2023/08/06 10:53:49;;;;;;;11.35;10.48;;;;;;;23.71;59.67;91799.75;4981012;28;20184;-77
2023/08/06 10:56:19;;;;;;;10.90;10.20;;;;;;;23.36;60.03;91794.34;4979475;28;20250;-71
2023/08/06 10:58:46;;;;;;;10.80;10.10;;;;;;;23.57;61.14;91815.72;4988584;28;20216;-71
2023/08/06 11:01:12;;;;;;;11.85;10.95;;;;;;;23.47;61.33;91805.03;4985446;28;20211;-72
2023/08/06 11:03:38;;;;;;;10.85;10.10;;;;;;;23.63;60.74;91819.53;5008677;28;20261;-73
2023/08/06 11:06:06;;;;;;;10.60;9.80;;;;;;;23.50;61.98;91815.69;5004887;28;20213;-72
2023/08/06 11:08:46;;;;;;;11.57;9.60;;;;;;;23.60;62.10;91816.84;4998013;28;20239;-69
2023/08/06 11:11:14;;;;;;;10.25;9.55;;;;;;;23.93;61.97;91818.44;5010076;28;20186;-70
2023/08/06 11:13:47;;;;;;;10.45;9.75;;;;;;;23.93;58.46;91819.22;5009744;28;20226;-70
2023/08/06 11:16:26;;;;;;;10.18;9.30;;;;;;;24.06;61.52;91809.75;5010536;28;20388;-70